createdAt,value
2018-04-16T00:00:22.969Z,92.20
2018-04-16T00:02:51.987Z,92.20
2018-04-16T00:05:20.264Z,92.10
2018-04-16T00:07:48.565Z,92.30
2018-04-16T00:10:16.822Z,92.40
2018-04-16T00:12:45.078Z,92.50
2018-04-16T00:15:14.099Z,92.70
2018-04-16T00:17:42.357Z,92.70
2018-04-16T00:20:10.601Z,92.80
2018-04-16T00:22:38.867Z,92.90
2018-04-16T00:25:07.108Z,92.90
2018-04-16T00:27:35.369Z,92.90
2018-04-16T00:30:03.627Z,93.10
2018-04-16T00:32:31.905Z,93.10
2018-04-16T00:35:02.224Z,93.00
2018-04-16T00:37:30.701Z,93.00
2018-04-16T00:39:58.947Z,92.80
2018-04-16T00:42:27.970Z,93.40
2018-04-16T00:44:56.235Z,92.80
2018-04-16T00:47:25.262Z,93.00
2018-04-16T00:49:53.524Z,93.00
2018-04-16T00:52:21.803Z,93.00
2018-04-16T00:54:50.077Z,93.00
2018-04-16T00:57:18.353Z,93.10
2018-04-16T00:59:46.642Z,93.10
2018-04-16T01:02:14.896Z,93.10
2018-04-16T01:04:43.153Z,93.20
2018-04-16T01:07:11.405Z,93.20
2018-04-16T01:09:39.681Z,93.10
2018-04-16T01:12:08.696Z,93.10
2018-04-16T01:14:36.968Z,93.10
2018-04-16T01:17:05.998Z,93.20
2018-04-16T01:19:34.265Z,93.10
2018-04-16T01:22:02.525Z,93.30
2018-04-16T01:24:30.782Z,93.50
2018-04-16T01:26:59.054Z,93.40
2018-04-16T01:29:28.081Z,93.30
2018-04-16T01:31:56.335Z,93.20
2018-04-16T01:34:24.617Z,93.20
2018-04-16T01:36:52.958Z,93.20
2018-04-16T01:39:21.989Z,93.20
2018-04-16T01:41:50.267Z,93.20
2018-04-16T01:44:18.627Z,93.20
2018-04-16T01:46:46.890Z,93.40
2018-04-16T01:49:15.937Z,93.40
2018-04-16T01:51:44.309Z,93.40
2018-04-16T01:54:12.594Z,93.40
2018-04-16T01:56:40.859Z,93.40
2018-04-16T01:59:09.115Z,93.40
2018-04-16T02:01:37.385Z,93.40
2018-04-16T02:04:05.643Z,93.40
2018-04-16T02:06:33.914Z,93.40
2018-04-16T02:09:02.270Z,93.40
2018-04-16T02:11:30.558Z,93.20
2018-04-16T02:13:58.799Z,93.10
2018-04-16T02:16:27.195Z,93.10
2018-04-16T02:18:55.424Z,92.80
2018-04-16T02:21:23.692Z,92.80
2018-04-16T02:23:51.941Z,92.70
2018-04-16T02:26:20.218Z,92.70
2018-04-16T02:28:48.469Z,92.80
2018-04-16T02:31:17.562Z,92.50
2018-04-16T02:33:45.817Z,92.50
2018-04-16T02:36:14.081Z,92.40
2018-04-16T02:38:42.353Z,92.40
2018-04-16T02:41:10.606Z,92.30
2018-04-16T02:43:38.934Z,92.40
2018-04-16T02:46:07.171Z,92.70
2018-04-16T02:48:35.455Z,92.30
2018-04-16T02:51:03.707Z,92.40
2018-04-16T02:53:31.997Z,92.50
2018-04-16T02:56:00.233Z,92.40
2018-04-16T02:58:28.520Z,92.20
2018-04-16T03:00:56.786Z,92.20
2018-04-16T03:03:25.823Z,92.00
2018-04-16T03:05:54.089Z,92.00
2018-04-16T03:08:22.319Z,92.20
2018-04-16T03:10:51.337Z,92.40
2018-04-16T03:13:19.614Z,92.30
2018-04-16T03:15:47.878Z,92.50
2018-04-16T03:18:16.150Z,92.40
2018-04-16T03:20:44.393Z,92.40
2018-04-16T03:23:13.578Z,92.30
2018-04-16T03:25:41.863Z,92.20
2018-04-16T03:28:10.123Z,92.10
2018-04-16T03:30:38.374Z,92.10
2018-04-16T03:33:06.688Z,92.10
2018-04-16T03:35:34.921Z,92.20
2018-04-16T03:38:03.166Z,92.20
2018-04-16T03:40:31.606Z,92.00
2018-04-16T03:42:59.865Z,91.90
2018-04-16T03:45:28.088Z,92.00
2018-04-16T03:47:56.350Z,92.00
2018-04-16T03:50:24.612Z,92.00
2018-04-16T03:52:52.885Z,92.50
2018-04-16T03:55:21.261Z,92.10
2018-04-16T03:57:49.597Z,91.80
2018-04-16T04:00:17.921Z,91.80
2018-04-16T04:02:46.145Z,91.80
2018-04-16T04:05:14.446Z,91.80
2018-04-16T04:07:42.697Z,91.90
2018-04-16T04:10:11.007Z,91.80
2018-04-16T04:12:39.277Z,91.70
2018-04-16T04:15:07.668Z,91.70
2018-04-16T04:17:35.928Z,91.60
2018-04-16T04:20:04.146Z,91.70
2018-04-16T04:22:44.383Z,92.00
2018-04-16T04:25:24.530Z,92.40
2018-04-16T04:28:04.658Z,92.80
2018-04-16T04:30:36.550Z,92.90
2018-04-16T04:33:05.565Z,93.20
2018-04-16T04:35:33.829Z,93.50
2018-04-16T04:38:02.099Z,93.30
2018-04-16T04:40:30.504Z,93.40
2018-04-16T04:42:58.832Z,93.50
2018-04-16T04:45:27.162Z,93.60
2018-04-16T04:47:55.429Z,93.60
2018-04-16T04:50:23.689Z,93.80
2018-04-16T04:52:51.958Z,93.80
2018-04-16T04:55:20.337Z,93.80
2018-04-16T04:57:48.645Z,93.70
2018-04-16T05:00:17.418Z,93.90
2018-04-16T05:02:45.692Z,94.00
2018-04-16T05:05:13.968Z,94.00
2018-04-16T05:07:42.274Z,94.00
2018-04-16T05:10:10.574Z,94.10
2018-04-16T05:12:38.814Z,94.20
2018-04-16T05:15:07.095Z,94.40
2018-04-16T05:17:35.953Z,94.50
2018-04-16T05:20:04.185Z,94.40
2018-04-16T05:22:32.564Z,94.40
2018-04-16T05:25:00.849Z,94.40
2018-04-16T05:27:29.933Z,94.50
2018-04-16T05:29:58.229Z,94.50
2018-04-16T05:32:26.588Z,94.60
2018-04-16T05:34:54.879Z,94.60
2018-04-16T05:37:23.913Z,94.50
2018-04-16T05:39:52.957Z,94.30
2018-04-16T05:42:22.810Z,94.20
2018-04-16T05:44:51.235Z,94.20
2018-04-16T05:47:19.510Z,94.10
2018-04-16T05:49:48.709Z,94.00
2018-04-16T05:52:17.002Z,94.00
2018-04-16T05:54:46.062Z,93.90
2018-04-16T05:57:14.310Z,93.80
2018-04-16T05:59:42.574Z,93.80
2018-04-16T06:02:10.837Z,93.70
2018-04-16T06:04:39.105Z,93.40
2018-04-16T06:07:07.553Z,93.30
2018-04-16T06:09:36.557Z,92.70
2018-04-16T06:12:04.835Z,92.70
2018-04-16T06:14:33.105Z,92.60
2018-04-16T06:17:02.121Z,92.50
2018-04-16T06:19:30.390Z,92.50
2018-04-16T06:21:58.673Z,92.30
2018-04-16T06:24:26.934Z,92.10
2018-04-16T06:26:55.216Z,92.00
2018-04-16T06:29:23.482Z,91.60
2018-04-16T06:31:52.519Z,91.60
2018-04-16T06:34:20.784Z,91.60
2018-04-16T06:36:49.044Z,91.40
2018-04-16T06:39:17.298Z,91.30
2018-04-16T06:41:45.600Z,91.10
2018-04-16T06:44:13.841Z,90.80
2018-04-16T06:46:42.897Z,90.60
2018-04-16T06:49:11.194Z,90.60
2018-04-16T06:51:40.240Z,88.50
2018-04-16T06:54:08.498Z,88.40
2018-04-16T06:56:36.841Z,89.10
2018-04-16T06:59:05.092Z,88.40
2018-04-16T07:01:33.373Z,88.10
2018-04-16T07:04:01.629Z,88.10
2018-04-16T07:06:30.020Z,87.50
2018-04-16T07:08:58.317Z,87.30
2018-04-16T07:11:26.546Z,86.90
2018-04-16T07:13:54.805Z,85.70
2018-04-16T07:16:23.123Z,85.20
2018-04-16T07:18:51.371Z,84.10
2018-04-16T07:21:19.663Z,83.60
2018-04-16T07:23:47.927Z,83.70
2018-04-16T07:26:16.194Z,83.50
2018-04-16T07:28:44.486Z,83.00
2018-04-16T07:31:13.532Z,82.40
2018-04-16T07:33:41.782Z,82.40
2018-04-16T07:36:10.026Z,82.90
2018-04-16T07:38:38.536Z,83.10
2018-04-16T07:41:06.788Z,82.30
2018-04-16T07:43:35.258Z,82.60
2018-04-16T07:46:03.569Z,82.70
2018-04-16T07:48:31.832Z,82.90
2018-04-16T07:51:00.090Z,82.60
2018-04-16T07:53:28.404Z,82.70
2018-04-16T07:55:57.486Z,81.80
2018-04-16T07:58:25.760Z,81.80
2018-04-16T08:00:54.033Z,81.70
2018-04-16T08:03:22.292Z,82.10
2018-04-16T08:05:52.084Z,81.70
2018-04-16T08:08:20.345Z,81.70
2018-04-16T08:10:48.676Z,80.60
2018-04-16T08:13:16.892Z,80.20
2018-04-16T08:15:45.161Z,79.80
2018-04-16T08:18:13.449Z,80.80
2018-04-16T08:20:41.729Z,80.90
2018-04-16T08:23:09.975Z,80.80
2018-04-16T08:25:38.306Z,81.00
2018-04-16T08:28:06.577Z,81.30
2018-04-16T08:30:34.874Z,80.70
2018-04-16T08:33:03.234Z,79.50
2018-04-16T08:35:31.510Z,78.90
2018-04-16T08:37:59.750Z,79.00
2018-04-16T08:40:28.022Z,78.70
2018-04-16T08:42:56.294Z,78.90
2018-04-16T08:45:24.570Z,79.20
2018-04-16T08:47:52.859Z,78.40
2018-04-16T08:50:21.128Z,78.00
2018-04-16T08:52:49.381Z,77.90
2018-04-16T08:55:17.653Z,76.80
2018-04-16T08:57:45.967Z,76.70
2018-04-16T09:00:14.230Z,76.80
2018-04-16T09:02:42.529Z,76.10
2018-04-16T09:05:10.795Z,75.20
2018-04-16T09:07:44.786Z,75.20
2018-04-16T09:10:13.040Z,75.10
2018-04-16T09:12:41.354Z,75.40
2018-04-16T09:15:09.587Z,74.90
2018-04-16T09:17:37.936Z,74.00
2018-04-16T09:20:06.950Z,74.50
2018-04-16T09:22:35.961Z,74.10
2018-04-16T09:25:04.232Z,74.00
2018-04-16T09:27:32.549Z,73.30
2018-04-16T09:30:00.752Z,73.20
2018-04-16T09:32:29.032Z,74.70
2018-04-16T09:34:58.101Z,72.80
2018-04-16T09:37:26.363Z,72.60
2018-04-16T09:39:54.622Z,71.40
2018-04-16T09:42:22.891Z,68.80
2018-04-16T09:44:51.142Z,70.10
2018-04-16T09:47:19.448Z,69.60
2018-04-16T09:49:47.661Z,68.00
2018-04-16T09:52:15.921Z,68.00
2018-04-16T09:54:44.173Z,67.30
2018-04-16T09:57:12.468Z,68.60
2018-04-16T09:59:40.681Z,66.10
2018-04-16T10:02:09.722Z,67.30
2018-04-16T10:04:37.982Z,67.30
2018-04-16T10:07:06.242Z,65.80
2018-04-16T10:09:34.494Z,65.30
2018-04-16T10:12:02.754Z,65.60
2018-04-16T10:14:31.786Z,64.80
2018-04-16T10:17:00.043Z,64.60
2018-04-16T10:19:28.715Z,64.90
2018-04-16T10:21:57.796Z,63.90
2018-04-16T10:24:26.013Z,63.80
2018-04-16T10:26:54.269Z,64.90
2018-04-16T10:29:22.537Z,63.80
2018-04-16T10:31:50.809Z,64.70
2018-04-16T10:34:19.833Z,63.30
2018-04-16T10:36:48.082Z,63.20
2018-04-16T10:39:17.153Z,60.10
2018-04-16T10:41:45.396Z,60.10
2018-04-16T10:44:13.657Z,59.40
2018-04-16T10:46:41.909Z,59.90
2018-04-16T10:49:10.165Z,60.50
2018-04-16T10:51:39.190Z,59.50
2018-04-16T10:54:07.462Z,59.50
2018-04-16T10:56:35.707Z,59.00
2018-04-16T10:59:04.737Z,60.30
2018-04-16T11:01:33.064Z,60.30
2018-04-16T11:04:01.332Z,61.20
2018-04-16T11:06:29.598Z,59.70
2018-04-16T11:08:57.893Z,58.70
2018-04-16T11:11:26.932Z,58.50
2018-04-16T11:13:55.187Z,58.50
2018-04-16T11:16:23.454Z,59.50
2018-04-16T11:18:51.805Z,58.70
2018-04-16T11:21:20.061Z,58.40
2018-04-16T11:23:48.345Z,58.40
2018-04-16T11:26:16.616Z,59.10
2018-04-16T11:28:44.879Z,58.10
2018-04-16T11:31:13.175Z,57.80
2018-04-16T11:33:42.944Z,58.20
2018-04-16T11:36:11.209Z,58.20
2018-04-16T11:38:39.459Z,57.60
2018-04-16T11:41:08.531Z,59.80
2018-04-16T11:43:36.781Z,59.80
2018-04-16T11:46:05.069Z,58.40
2018-04-16T11:48:34.849Z,57.30
2018-04-16T11:51:03.118Z,57.20
2018-04-16T11:53:31.405Z,58.30
2018-04-16T11:55:59.792Z,57.90
2018-04-16T11:58:28.058Z,58.40
2018-04-16T12:00:56.327Z,58.60
2018-04-16T12:03:24.617Z,57.10
2018-04-16T12:05:52.920Z,57.40
2018-04-16T12:08:21.156Z,56.40
2018-04-16T12:10:49.414Z,56.70
2018-04-16T12:13:17.747Z,56.40
2018-04-16T12:15:46.014Z,56.90
2018-04-16T12:18:14.270Z,56.30
2018-04-16T12:20:42.531Z,55.40
2018-04-16T12:23:10.795Z,54.90
2018-04-16T12:25:39.046Z,54.20
2018-04-16T12:28:07.338Z,54.10
2018-04-16T12:30:35.593Z,53.00
2018-04-16T12:33:03.910Z,53.30
2018-04-16T12:35:32.934Z,51.70
2018-04-16T12:38:01.194Z,51.70
2018-04-16T12:40:29.436Z,50.60
2018-04-16T12:42:57.739Z,51.30
2018-04-16T12:45:26.033Z,52.30
2018-04-16T12:47:54.287Z,52.90
2018-04-16T12:50:22.540Z,52.30
2018-04-16T12:52:50.817Z,51.10
2018-04-16T12:55:19.077Z,50.00
2018-04-16T12:57:47.346Z,48.10
2018-04-16T13:00:15.660Z,48.20
2018-04-16T13:02:43.928Z,47.50
2018-04-16T13:05:12.181Z,48.10
2018-04-16T13:07:40.482Z,48.50
2018-04-16T13:10:08.769Z,48.00
2018-04-16T13:12:37.025Z,49.30
2018-04-16T13:15:05.311Z,49.50
2018-04-16T13:17:33.586Z,48.60
2018-04-16T13:20:01.884Z,47.80
2018-04-16T13:22:30.276Z,46.70
2018-04-16T13:24:59.311Z,48.10
2018-04-16T13:27:27.566Z,48.00
2018-04-16T13:29:55.846Z,48.40
2018-04-16T13:32:24.116Z,49.50
2018-04-16T13:34:52.396Z,49.70
2018-04-16T13:37:20.690Z,50.10
2018-04-16T13:39:48.966Z,49.40
2018-04-16T13:42:17.226Z,48.50
2018-04-16T13:44:45.503Z,49.20
2018-04-16T13:47:13.785Z,46.70
2018-04-16T13:49:42.051Z,47.20
2018-04-16T13:52:10.293Z,48.20
2018-04-16T13:54:39.318Z,47.10
2018-04-16T13:57:07.579Z,47.00
2018-04-16T13:59:35.830Z,48.20
2018-04-16T14:02:04.915Z,48.60
2018-04-16T14:04:33.170Z,48.60
2018-04-16T14:07:01.456Z,48.70
2018-04-16T14:09:30.505Z,49.20
2018-04-16T14:11:58.769Z,49.20
2018-04-16T14:14:27.022Z,47.80
2018-04-16T14:16:56.053Z,47.90
2018-04-16T14:19:24.376Z,47.90
2018-04-16T14:21:52.660Z,48.30
2018-04-16T14:24:21.749Z,48.60
2018-04-16T14:26:50.043Z,48.50
2018-04-16T14:29:18.273Z,47.00
2018-04-16T14:31:46.581Z,47.20
2018-04-16T14:34:14.834Z,48.10
2018-04-16T14:36:43.089Z,48.00
2018-04-16T14:39:11.403Z,48.60
2018-04-16T14:41:39.642Z,47.80
2018-04-16T14:44:08.043Z,47.30
2018-04-16T14:46:36.283Z,47.30
2018-04-16T14:49:04.578Z,47.70
2018-04-16T14:51:32.867Z,48.20
2018-04-16T14:54:01.197Z,47.80
2018-04-16T14:56:29.387Z,47.60
2018-04-16T14:58:57.695Z,47.00
2018-04-16T15:01:26.726Z,48.00
2018-04-16T15:03:54.996Z,47.40
2018-04-16T15:06:23.262Z,46.90
2018-04-16T15:08:51.931Z,47.00
2018-04-16T15:11:20.952Z,46.20
2018-04-16T15:13:49.215Z,46.20
2018-04-16T15:16:18.225Z,46.20
2018-04-16T15:18:46.754Z,46.20
2018-04-16T15:21:15.069Z,47.40
2018-04-16T15:23:43.323Z,46.30
2018-04-16T15:26:11.569Z,45.80
2018-04-16T15:28:40.623Z,46.40
2018-04-16T15:31:08.886Z,46.40
2018-04-16T15:33:37.886Z,46.30
2018-04-16T15:36:06.167Z,46.30
2018-04-16T15:38:34.448Z,45.80
2018-04-16T15:41:02.737Z,46.20
2018-04-16T15:43:30.989Z,45.70
2018-04-16T15:45:59.325Z,45.70
2018-04-16T15:48:27.561Z,45.10
2018-04-16T15:50:55.821Z,45.80
2018-04-16T15:53:24.102Z,46.40
2018-04-16T15:55:52.356Z,45.70
2018-04-16T15:58:20.620Z,45.60
2018-04-16T16:00:49.657Z,45.90
2018-04-16T16:03:17.946Z,45.80
2018-04-16T16:05:46.195Z,45.60
2018-04-16T16:08:14.461Z,46.00
2018-04-16T16:10:42.824Z,46.20
2018-04-16T16:13:11.862Z,46.00
2018-04-16T16:15:40.081Z,46.00
2018-04-16T16:18:09.091Z,46.80
2018-04-16T16:20:37.372Z,46.80
2018-04-16T16:23:05.736Z,45.70
2018-04-16T16:25:34.050Z,45.40
2018-04-16T16:28:02.307Z,46.20
2018-04-16T16:30:30.559Z,45.70
2018-04-16T16:32:59.585Z,46.20
2018-04-16T16:35:27.790Z,46.20
2018-04-16T16:37:56.046Z,46.10
2018-04-16T16:40:24.330Z,47.30
2018-04-16T16:42:52.563Z,47.60
2018-04-16T16:45:20.809Z,48.40
2018-04-16T16:47:49.799Z,48.00
2018-04-16T16:50:18.888Z,49.90
2018-04-16T16:52:48.568Z,49.90
2018-04-16T16:55:16.797Z,49.80
2018-04-16T16:57:45.081Z,49.50
2018-04-16T17:00:13.313Z,49.80
2018-04-16T17:02:41.574Z,50.00
2018-04-16T17:05:09.833Z,50.30
2018-04-16T17:07:38.103Z,50.10
2018-04-16T17:10:07.159Z,51.30
2018-04-16T17:12:36.219Z,50.20
2018-04-16T17:15:04.503Z,50.20
2018-04-16T17:17:32.888Z,51.00
2018-04-16T17:20:01.158Z,50.80
2018-04-16T17:22:29.395Z,51.60
2018-04-16T17:24:57.695Z,51.50
2018-04-16T17:27:25.922Z,50.80
2018-04-16T17:29:54.237Z,51.20
2018-04-16T17:32:22.473Z,51.20
2018-04-16T17:34:50.722Z,51.80
2018-04-16T17:37:19.739Z,52.20
2018-04-16T17:39:48.061Z,52.00
2018-04-16T17:42:16.294Z,52.40
2018-04-16T17:44:44.539Z,52.80
2018-04-16T17:47:13.589Z,53.30
2018-04-16T17:49:41.884Z,53.30
2018-04-16T17:52:10.163Z,53.10
2018-04-16T17:54:38.414Z,53.40
2018-04-16T17:57:06.649Z,53.80
2018-04-16T17:59:34.958Z,53.40
2018-04-16T18:02:03.205Z,53.70
2018-04-16T18:04:31.446Z,53.80
2018-04-16T18:07:00.523Z,54.00
2018-04-16T18:09:28.716Z,53.90
2018-04-16T18:11:56.994Z,54.40
2018-04-16T18:14:25.998Z,55.10
2018-04-16T18:16:54.269Z,55.10
2018-04-16T18:19:22.537Z,55.40
2018-04-16T18:21:50.791Z,55.80
2018-04-16T18:24:19.024Z,56.00
2018-04-16T18:26:47.293Z,56.00
2018-04-16T18:29:15.642Z,56.50
2018-04-16T18:31:44.667Z,56.90
2018-04-16T18:34:12.908Z,56.90
2018-04-16T18:36:41.952Z,57.50
2018-04-16T18:39:12.106Z,57.50
2018-04-16T18:41:41.170Z,57.70
2018-04-16T18:44:09.448Z,57.70
2018-04-16T18:46:37.706Z,58.00
2018-04-16T18:49:05.995Z,58.40
2018-04-16T18:51:34.236Z,58.60
2018-04-16T18:54:02.553Z,59.00
2018-04-16T18:56:30.816Z,59.50
2018-04-16T18:58:59.096Z,59.80
2018-04-16T19:01:27.343Z,60.30
2018-04-16T19:03:55.596Z,61.00
2018-04-16T19:06:23.855Z,61.50
2018-04-16T19:08:52.205Z,62.00
2018-04-16T19:11:20.441Z,62.60
2018-04-16T19:13:48.695Z,63.20
2018-04-16T19:16:16.967Z,63.60
2018-04-16T19:18:45.981Z,64.20
2018-04-16T19:21:14.256Z,64.10
2018-04-16T19:23:42.540Z,64.80
2018-04-16T19:26:10.821Z,64.60
2018-04-16T19:28:39.086Z,65.10
2018-04-16T19:31:07.357Z,65.00
2018-04-16T19:33:35.633Z,65.10
2018-04-16T19:36:03.898Z,65.40
2018-04-16T19:38:32.126Z,65.70
2018-04-16T19:41:00.381Z,65.90
2018-04-16T19:43:28.629Z,66.20
2018-04-16T19:45:56.939Z,66.40
2018-04-16T19:48:25.222Z,66.80
2018-04-16T19:50:53.515Z,66.90
2018-04-16T19:53:22.542Z,67.40
2018-04-16T19:55:50.787Z,67.30
2018-04-16T19:58:19.039Z,67.90
2018-04-16T20:00:47.289Z,68.20
2018-04-16T20:03:15.560Z,68.30
2018-04-16T20:05:43.814Z,68.80
2018-04-16T20:08:12.072Z,69.20
2018-04-16T20:10:40.368Z,69.20
2018-04-16T20:13:08.626Z,69.60
2018-04-16T20:15:36.865Z,69.80
2018-04-16T20:18:05.141Z,70.10
2018-04-16T20:20:33.413Z,70.20
2018-04-16T20:23:01.779Z,70.50
2018-04-16T20:25:30.018Z,70.90
2018-04-16T20:27:58.315Z,71.30
2018-04-16T20:30:26.569Z,71.80
2018-04-16T20:32:54.830Z,72.30
2018-04-16T20:35:23.080Z,72.60
2018-04-16T20:37:51.330Z,73.00
2018-04-16T20:40:19.576Z,73.50
2018-04-16T20:42:47.832Z,73.70
2018-04-16T20:45:16.069Z,74.20
2018-04-16T20:47:44.410Z,74.10
2018-04-16T20:50:12.641Z,79.50
2018-04-16T20:52:41.954Z,74.60
2018-04-16T20:55:10.282Z,74.50
2018-04-16T20:57:38.521Z,74.80
2018-04-16T21:00:06.808Z,75.20
2018-04-16T21:02:35.091Z,75.30
2018-04-16T21:05:03.376Z,75.40
2018-04-16T21:07:31.661Z,75.60
2018-04-16T21:09:59.905Z,75.80
2018-04-16T21:12:29.023Z,77.00
2018-04-16T21:14:57.271Z,76.10
2018-04-16T21:17:25.511Z,76.40
2018-04-16T21:19:53.768Z,76.70
2018-04-16T21:22:22.834Z,77.00
2018-04-16T21:24:51.077Z,76.90
2018-04-16T21:27:19.306Z,77.00
2018-04-16T21:29:48.342Z,77.50
2018-04-16T21:32:16.579Z,77.40
2018-04-16T21:34:45.597Z,78.00
2018-04-16T21:37:13.916Z,77.90
2018-04-16T21:39:42.142Z,78.00
2018-04-16T21:42:10.384Z,78.40
2018-04-16T21:44:39.514Z,78.90
2018-04-16T21:47:07.773Z,78.90
2018-04-16T21:49:36.793Z,79.30
2018-04-16T21:52:05.095Z,79.30
2018-04-16T21:54:33.713Z,79.60
2018-04-16T21:57:01.974Z,79.70
2018-04-16T21:59:30.229Z,80.70
2018-04-16T22:01:58.516Z,80.00
2018-04-16T22:04:26.746Z,80.30
2018-04-16T22:06:55.055Z,80.20
2018-04-16T22:09:23.503Z,80.30
2018-04-16T22:11:51.773Z,80.60
2018-04-16T22:14:20.050Z,80.70
2018-04-16T22:16:48.390Z,81.00
2018-04-16T22:19:16.671Z,81.00
2018-04-16T22:21:44.960Z,81.20
2018-04-16T22:24:13.203Z,81.20
2018-04-16T22:26:41.442Z,81.50
2018-04-16T22:29:09.803Z,81.60
2018-04-16T22:31:38.115Z,81.80
2018-04-16T22:34:06.316Z,81.00
2018-04-16T22:36:35.326Z,82.20
2018-04-16T22:39:03.759Z,82.10
2018-04-16T22:41:31.994Z,82.50
2018-04-16T22:44:00.266Z,82.80
2018-04-16T22:46:28.530Z,83.20
2018-04-16T22:48:56.783Z,83.30
2018-04-16T22:51:25.795Z,83.80
2018-04-16T22:53:54.043Z,83.70
2018-04-16T22:56:23.053Z,84.50
2018-04-16T22:58:51.314Z,84.40
2018-04-16T23:01:19.567Z,84.80
2018-04-16T23:03:47.922Z,84.90
2018-04-16T23:06:16.187Z,84.90
2018-04-16T23:08:44.470Z,85.10
2018-04-16T23:11:12.730Z,85.50
2018-04-16T23:13:40.997Z,85.50
2018-04-16T23:16:09.301Z,85.30
2018-04-16T23:18:37.573Z,85.20
2018-04-16T23:21:05.829Z,85.10
2018-04-16T23:23:34.143Z,85.30
2018-04-16T23:26:03.039Z,85.00
2018-04-16T23:28:31.267Z,85.80
2018-04-16T23:30:59.601Z,84.90
2018-04-16T23:33:27.854Z,84.80
2018-04-16T23:35:56.899Z,84.70
2018-04-16T23:38:25.273Z,84.70
2018-04-16T23:40:53.567Z,84.80
2018-04-16T23:43:21.899Z,84.90
2018-04-16T23:45:50.930Z,85.40
2018-04-16T23:48:19.191Z,85.40
2018-04-16T23:50:47.521Z,85.40
2018-04-16T23:53:15.752Z,85.40
2018-04-16T23:55:44.023Z,85.60
2018-04-16T23:58:12.326Z,85.60
